Time;durP1;ratioP1;P1;durP2;ratioP2;P2;SDS_P1;SDS_P2;PMS_P1;PMS_P2;Temp;Humidity;BMP_temperature;BMP_pressure;BME280_temperature;BME280_humidity;BME280_pressure;Samples;Min_cycle;Max_cycle;Signal;HPM_P1;HPM_P2
2021/12/26 00:01:31;;;;;;;15.15;9.20;;;0.30;93.80;;;;;;5135927;27;20235;-63
2021/12/26 00:03:58;;;;;;;10.90;8.63;;;0.30;93.90;;;;;;5135579;27;20715;-63
2021/12/26 00:06:28;;;;;;;12.90;8.20;;;0.20;94.10;;;;;;5135273;27;20248;-63
2021/12/26 00:08:56;;;;;;;10.55;8.38;;;0.20;94.10;;;;;;5135357;27;20228;-63
2021/12/26 00:11:24;;;;;;;12.18;8.18;;;0.20;94.20;;;;;;5135248;27;20225;-62
2021/12/26 00:13:53;;;;;;;13.18;9.00;;;0.10;94.20;;;;;;5135699;27;20739;-63
2021/12/26 00:16:20;;;;;;;11.88;9.63;;;0.10;94.30;;;;;;5134625;27;20243;-63
2021/12/26 00:18:47;;;;;;;10.45;8.73;;;0.10;94.30;;;;;;5135432;27;20226;-63
2021/12/26 00:21:15;;;;;;;16.27;9.25;;;0.10;94.40;;;;;;5135001;27;20286;-63
2021/12/26 00:23:43;;;;;;;22.60;13.32;;;0.10;94.40;;;;;;5135061;27;20311;-63
2021/12/26 00:26:10;;;;;;;24.67;14.13;;;0.10;94.40;;;;;;5134983;27;20224;-63
2021/12/26 00:28:38;;;;;;;21.30;14.77;;;0.10;94.50;;;;;;5135197;27;20821;-63
2021/12/26 00:31:06;;;;;;;25.33;13.68;;;0.10;94.50;;;;;;5131019;27;20216;-63
2021/12/26 00:33:33;;;;;;;21.23;14.32;;;0.10;94.50;;;;;;5133711;27;20220;-63
2021/12/26 00:36:01;;;;;;;20.88;13.80;;;0.10;94.60;;;;;;5135221;27;20228;-63
2021/12/26 00:38:28;;;;;;;19.20;14.55;;;0.10;94.60;;;;;;5134387;27;20659;-63
2021/12/26 00:40:56;;;;;;;23.67;12.80;;;0.00;94.60;;;;;;5127982;27;20224;-63
2021/12/26 00:43:24;;;;;;;18.30;13.52;;;0.00;94.80;;;;;;5130444;27;20242;-63
2021/12/26 00:45:51;;;;;;;23.77;15.15;;;0.00;94.80;;;;;;5134527;27;20678;-63
2021/12/26 00:48:18;;;;;;;22.48;14.93;;;-0.10;94.90;;;;;;5134268;27;20240;-63
2021/12/26 00:50:45;;;;;;;19.85;15.18;;;-0.20;95.00;;;;;;5134576;27;20225;-62
2021/12/26 00:53:12;;;;;;;25.35;15.80;;;-0.20;95.10;;;;;;5134117;27;20228;-63
2021/12/26 00:55:44;;;;;;;25.80;15.85;;;-0.10;95.30;;;;;;5135051;27;20222;-63
2021/12/26 00:58:12;;;;;;;24.33;16.00;;;-0.10;95.30;;;;;;5134292;27;20222;-63
2021/12/26 01:00:42;;;;;;;25.10;15.02;;;-0.10;95.30;;;;;;5134613;27;20699;-63
2021/12/26 01:03:10;;;;;;;22.08;14.95;;;-0.10;95.30;;;;;;5134289;27;20223;-63
2021/12/26 01:05:39;;;;;;;28.05;15.63;;;-0.10;95.30;;;;;;5134610;27;20220;-63
2021/12/26 01:08:14;;;;;;;22.85;16.35;;;-0.10;95.40;;;;;;5134270;27;20224;-63
2021/12/26 01:10:43;;;;;;;21.02;12.80;;;-0.10;95.30;;;;;;5134251;27;20219;-63
2021/12/26 01:13:20;;;;;;;20.75;13.07;;;0.00;95.30;;;;;;5134398;27;20226;-62
2021/12/26 01:15:49;;;;;;;19.98;13.38;;;0.00;95.30;;;;;;5134175;27;20220;-63
2021/12/26 01:18:18;;;;;;;16.98;14.07;;;0.00;95.10;;;;;;5134222;27;20221;-63
2021/12/26 01:20:51;;;;;;;17.27;11.68;;;-0.10;95.10;;;;;;5133846;27;20231;-63
2021/12/26 01:23:21;;;;;;;15.13;11.20;;;-0.10;95.10;;;;;;5132207;27;20302;-63
2021/12/26 01:25:48;;;;;;;16.48;12.60;;;-0.10;95.10;;;;;;5134064;27;20220;-63
2021/12/26 01:28:17;;;;;;;15.77;10.40;;;-0.10;95.20;;;;;;5133480;27;20681;-63
2021/12/26 01:30:45;;;;;;;14.80;12.35;;;-0.10;95.10;;;;;;5133029;27;20233;-63
2021/12/26 01:33:17;;;;;;;17.42;12.25;;;-0.20;95.00;;;;;;5125031;27;20328;-63
2021/12/26 01:35:44;;;;;;;13.32;10.85;;;-0.20;95.00;;;;;;5128063;27;20480;-63
2021/12/26 01:38:15;;;;;;;15.85;10.70;;;-0.10;95.00;;;;;;5133964;27;20231;-63
2021/12/26 01:40:45;;;;;;;13.82;10.85;;;-0.10;95.00;;;;;;5119992;27;20562;-62
2021/12/26 01:43:13;;;;;;;14.95;10.43;;;-0.20;94.80;;;;;;5133944;27;20233;-63
2021/12/26 01:45:45;;;;;;;13.18;9.82;;;-0.20;94.90;;;;;;5133524;27;20315;-63
2021/12/26 01:48:12;;;;;;;15.63;10.02;;;-0.20;95.00;;;;;;5129157;27;20674;-63
2021/12/26 01:50:40;;;;;;;14.18;10.60;;;-0.20;95.00;;;;;;5133536;27;20670;-63
2021/12/26 01:53:07;;;;;;;16.52;11.32;;;-0.20;95.10;;;;;;5133799;27;20231;-63
2021/12/26 01:55:40;;;;;;;19.10;11.05;;;-0.20;94.90;;;;;;5133566;27;20216;-63
2021/12/26 01:58:09;;;;;;;16.05;11.93;;;-0.20;94.90;;;;;;5133716;27;20779;-63
2021/12/26 02:00:37;;;;;;;13.07;11.68;;;-0.30;94.80;;;;;;5133252;27;20221;-63
2021/12/26 02:03:06;;;;;;;16.90;11.25;;;-0.20;94.90;;;;;;5133664;27;20220;-63
2021/12/26 02:05:33;;;;;;;16.27;9.20;;;-0.20;94.90;;;;;;5133143;27;20220;-63
2021/12/26 02:08:00;;;;;;;13.02;9.40;;;-0.30;94.90;;;;;;5133470;27;20224;-63
2021/12/26 02:10:27;;;;;;;15.40;10.77;;;-0.20;94.90;;;;;;5133376;27;20715;-63
2021/12/26 02:12:54;;;;;;;17.73;11.40;;;-0.20;95.00;;;;;;5133480;27;20802;-63
2021/12/26 02:15:21;;;;;;;13.10;9.70;;;-0.20;94.90;;;;;;5133422;27;20230;-63
2021/12/26 02:17:48;;;;;;;12.68;9.27;;;-0.20;95.00;;;;;;5133256;27;20227;-63
2021/12/26 02:20:31;;;;;;;11.82;10.63;;;-0.20;94.90;;;;;;5133390;27;20232;-63
2021/12/26 02:23:04;;;;;;;14.98;11.98;;;-0.20;95.00;;;;;;5132063;27;21310;-63
2021/12/26 02:28:16;;;;;;;13.60;9.77;;;-0.20;94.90;;;;;;5133025;27;20229;-63
2021/12/26 02:30:43;;;;;;;17.52;10.18;;;-0.20;94.80;;;;;;5132964;27;20599;-63
2021/12/26 02:33:12;;;;;;;15.18;9.82;;;-0.20;94.70;;;;;;5129871;27;20223;-63
2021/12/26 02:35:42;;;;;;;15.02;10.68;;;-0.20;94.60;;;;;;5123782;27;20214;-63
2021/12/26 02:38:10;;;;;;;16.58;11.20;;;-0.30;94.70;;;;;;5133078;27;20235;-63
2021/12/26 02:40:37;;;;;;;12.60;10.45;;;-0.30;94.60;;;;;;5130939;27;20570;-63
2021/12/26 02:43:05;;;;;;;11.95;9.10;;;-0.30;94.70;;;;;;5134828;27;20304;-63
2021/12/26 02:45:32;;;;;;;13.90;10.43;;;-0.30;94.80;;;;;;5137124;27;20673;-63
2021/12/26 02:47:59;;;;;;;14.57;9.45;;;-0.30;94.70;;;;;;5137253;27;20568;-63
2021/12/26 02:50:29;;;;;;;10.32;8.65;;;-0.30;94.70;;;;;;5136836;27;20224;-63
2021/12/26 02:52:59;;;;;;;15.20;9.50;;;-0.40;94.60;;;;;;5137258;27;20223;-63
2021/12/26 02:55:27;;;;;;;11.95;8.05;;;-0.40;95.00;;;;;;5136804;27;20220;-63
2021/12/26 02:57:57;;;;;;;9.98;8.55;;;-0.40;94.60;;;;;;5137217;27;20219;-62
2021/12/26 03:00:29;;;;;;;12.45;8.00;;;-0.40;94.70;;;;;;5136686;27;20234;-63
2021/12/26 03:02:58;;;;;;;13.15;7.90;;;-0.40;94.70;;;;;;5124240;27;20219;-63
2021/12/26 03:05:29;;;;;;;11.90;9.23;;;-0.40;94.70;;;;;;5136651;27;20226;-63
2021/12/26 03:07:57;;;;;;;10.82;8.55;;;-0.50;94.50;;;;;;5137183;27;20288;-63
2021/12/26 03:10:26;;;;;;;10.07;8.23;;;-0.50;94.50;;;;;;5136243;27;20237;-63
2021/12/26 03:12:55;;;;;;;17.45;8.73;;;-0.50;94.70;;;;;;5136914;27;20218;-63
2021/12/26 03:15:22;;;;;;;12.90;8.88;;;-0.50;94.90;;;;;;5136492;27;20244;-63
2021/12/26 03:17:50;;;;;;;13.65;8.70;;;-0.50;94.90;;;;;;5137139;27;20247;-63
2021/12/26 03:20:19;;;;;;;11.25;8.82;;;-0.60;95.00;;;;;;5136336;27;20232;-62
2021/12/26 03:22:47;;;;;;;13.13;9.18;;;-0.50;94.90;;;;;;5127869;27;20224;-62
2021/12/26 03:25:18;;;;;;;12.73;9.77;;;-0.50;94.80;;;;;;5134885;27;20220;-62
2021/12/26 03:27:45;;;;;;;17.23;10.07;;;-0.50;94.70;;;;;;5136341;27;20234;-62
2021/12/26 03:30:14;;;;;;;14.52;10.10;;;-0.50;94.80;;;;;;5136325;27;20247;-62
2021/12/26 03:32:42;;;;;;;11.95;9.85;;;-0.50;94.90;;;;;;5132237;27;20596;-63
2021/12/26 03:35:10;;;;;;;13.55;10.07;;;-0.60;94.90;;;;;;5127327;27;20666;-63
2021/12/26 03:37:38;;;;;;;12.13;8.80;;;-0.60;94.80;;;;;;5135895;27;20228;-62
2021/12/26 03:40:05;;;;;;;13.52;9.85;;;-0.50;94.90;;;;;;5136293;27;20626;-62
2021/12/26 03:42:33;;;;;;;13.98;9.05;;;-0.50;94.90;;;;;;5135655;27;20225;-63
2021/12/26 03:45:01;;;;;;;13.25;9.25;;;-0.50;94.80;;;;;;5136285;27;20554;-63
2021/12/26 03:47:29;;;;;;;12.98;10.15;;;-0.50;94.80;;;;;;5135878;27;20298;-64
2021/12/26 03:49:57;;;;;;;10.35;7.93;;;-0.60;94.80;;;;;;5125350;27;20227;-63
2021/12/26 03:52:24;;;;;;;10.95;8.45;;;-0.60;94.90;;;;;;5134710;27;20225;-63
2021/12/26 03:54:52;;;;;;;15.40;10.05;;;-0.50;94.90;;;;;;5136066;27;20217;-64
2021/12/26 03:57:19;;;;;;;11.57;10.07;;;-0.50;94.80;;;;;;5136187;27;20225;-63
2021/12/26 03:59:48;;;;;;;14.23;9.85;;;-0.60;94.80;;;;;;5122002;27;20223;-63
2021/12/26 04:02:15;;;;;;;12.65;10.20;;;-0.60;94.90;;;;;;5135873;27;20234;-63
2021/12/26 04:04:42;;;;;;;16.30;10.90;;;-0.60;94.90;;;;;;5135507;27;20280;-63
2021/12/26 04:07:10;;;;;;;14.98;10.73;;;-0.50;95.00;;;;;;5135662;27;20223;-63
2021/12/26 04:09:36;;;;;;;14.88;10.48;;;-0.50;95.00;;;;;;5135385;27;20233;-64
2021/12/26 04:12:04;;;;;;;13.30;10.05;;;-0.60;95.00;;;;;;5135638;27;20308;-63
2021/12/26 04:14:31;;;;;;;11.52;9.55;;;-0.60;95.00;;;;;;5135100;27;20216;-63
2021/12/26 04:16:59;;;;;;;13.20;9.57;;;-0.60;95.00;;;;;;5135591;27;20220;-63
2021/12/26 04:19:26;;;;;;;11.00;9.70;;;-0.70;94.90;;;;;;5135195;27;20218;-63
2021/12/26 04:21:53;;;;;;;10.75;7.90;;;-0.70;95.00;;;;;;5135409;27;20225;-63
2021/12/26 04:24:29;;;;;;;13.68;9.48;;;-0.70;95.10;;;;;;5128058;27;20234;-63
2021/12/26 04:26:56;;;;;;;9.88;8.27;;;-0.70;95.10;;;;;;5122194;27;21482;-63
2021/12/26 04:29:23;;;;;;;11.73;7.72;;;-0.70;95.00;;;;;;5135287;27;20614;-63
2021/12/26 04:31:50;;;;;;;10.35;8.90;;;-0.70;94.80;;;;;;5132665;27;20224;-63
2021/12/26 04:34:18;;;;;;;14.18;9.77;;;-0.70;94.80;;;;;;5128025;27;20222;-63
2021/12/26 04:36:45;;;;;;;10.25;8.00;;;-0.70;94.80;;;;;;5134905;27;20228;-63
2021/12/26 04:39:12;;;;;;;9.70;8.70;;;-0.70;94.70;;;;;;5135053;27;20241;-63
2021/12/26 04:41:39;;;;;;;9.48;8.57;;;-0.70;94.80;;;;;;5129917;27;20226;-63
2021/12/26 04:44:06;;;;;;;11.40;9.60;;;-0.70;94.70;;;;;;5135230;27;20225;-63
2021/12/26 04:46:33;;;;;;;11.30;8.43;;;-0.80;94.70;;;;;;5134741;27;20245;-63
2021/12/26 04:49:00;;;;;;;13.23;10.18;;;-0.80;94.60;;;;;;5135008;27;20571;-63
2021/12/26 04:51:28;;;;;;;13.95;9.80;;;-0.70;94.70;;;;;;5134920;27;20624;-63
2021/12/26 04:53:55;;;;;;;15.90;10.00;;;-0.80;94.60;;;;;;5134389;27;20303;-63
2021/12/26 04:56:22;;;;;;;11.07;8.68;;;-0.70;94.70;;;;;;5134912;27;20587;-62
2021/12/26 04:58:49;;;;;;;9.98;8.32;;;-0.80;94.50;;;;;;5134316;27;20217;-63
2021/12/26 05:01:16;;;;;;;10.80;7.50;;;-0.80;94.70;;;;;;5134712;27;20760;-63
2021/12/26 05:03:43;;;;;;;9.38;7.85;;;-0.80;94.50;;;;;;5134231;27;20293;-63
2021/12/26 05:06:10;;;;;;;11.55;9.27;;;-0.80;94.40;;;;;;5134584;27;20223;-63
2021/12/26 05:08:38;;;;;;;9.93;8.10;;;-0.80;94.40;;;;;;5134178;27;20223;-63
2021/12/26 05:11:05;;;;;;;10.10;9.00;;;-0.80;94.50;;;;;;5134620;27;20690;-63
2021/12/26 05:13:32;;;;;;;13.07;8.57;;;-0.80;94.40;;;;;;5134504;27;20216;-63
2021/12/26 05:15:59;;;;;;;13.55;9.18;;;-0.80;94.50;;;;;;5134101;27;20234;-63
2021/12/26 05:18:26;;;;;;;9.90;8.82;;;-0.80;94.60;;;;;;5134567;27;20225;-63
2021/12/26 05:20:53;;;;;;;12.88;9.52;;;-0.90;94.60;;;;;;5133961;27;20862;-63
2021/12/26 05:23:20;;;;;;;12.07;8.82;;;-0.90;94.60;;;;;;5134036;27;20235;-63
2021/12/26 05:25:48;;;;;;;12.25;9.15;;;-0.80;94.70;;;;;;5133853;27;20231;-63
2021/12/26 05:28:15;;;;;;;12.32;8.80;;;-0.80;94.50;;;;;;5134258;27;20225;-63
2021/12/26 05:30:42;;;;;;;9.77;8.75;;;-0.80;94.50;;;;;;5133519;27;20233;-63
2021/12/26 05:33:09;;;;;;;12.40;7.80;;;-0.90;94.40;;;;;;5132623;27;20219;-63
2021/12/26 05:35:36;;;;;;;10.77;9.13;;;-0.90;94.50;;;;;;5127156;27;20230;-63
2021/12/26 05:38:03;;;;;;;9.55;7.47;;;-1.00;94.50;;;;;;5133720;27;20669;-62
2021/12/26 05:40:30;;;;;;;12.35;8.63;;;-0.90;95.00;;;;;;5130837;27;20673;-62
2021/12/26 05:42:58;;;;;;;11.27;8.68;;;-1.00;94.50;;;;;;5132080;27;20701;-63
2021/12/26 05:45:25;;;;;;;12.88;8.23;;;-1.00;94.50;;;;;;5134105;27;20573;-63
2021/12/26 05:47:52;;;;;;;12.07;7.90;;;-1.00;94.50;;;;;;5133548;27;20219;-63
2021/12/26 05:50:21;;;;;;;11.77;8.30;;;-1.00;94.60;;;;;;5133962;27;20228;-63
2021/12/26 05:52:48;;;;;;;11.75;10.02;;;-1.00;94.60;;;;;;5133208;27;20226;-63
2021/12/26 05:55:16;;;;;;;12.10;9.15;;;-1.00;94.70;;;;;;5133860;27;20230;-63
2021/12/26 05:57:43;;;;;;;13.02;9.80;;;-1.00;94.50;;;;;;5133465;27;20724;-63
2021/12/26 06:00:15;;;;;;;14.75;10.32;;;-1.00;94.40;;;;;;5133543;27;20231;-62
2021/12/26 06:02:42;;;;;;;12.98;10.38;;;-1.00;94.40;;;;;;5133322;27;20237;-62
2021/12/26 06:05:10;;;;;;;13.90;9.18;;;-1.00;94.50;;;;;;5133384;27;20223;-63
2021/12/26 06:07:37;;;;;;;12.32;8.63;;;-1.00;94.50;;;;;;5133487;27;20227;-63
2021/12/26 06:10:05;;;;;;;9.88;7.93;;;-1.00;94.40;;;;;;5133259;27;20224;-62
2021/12/26 06:12:31;;;;;;;10.60;8.77;;;-1.10;94.40;;;;;;5133661;27;20577;-64
2021/12/26 06:17:42;;;;;;;12.85;9.20;;;-1.10;94.40;;;;;;5132677;27;20275;-64
2021/12/26 06:20:14;;;;;;;12.95;9.50;;;-1.10;94.60;;;;;;5132955;27;20219;-64
2021/12/26 06:22:41;;;;;;;9.68;7.72;;;-1.10;94.60;;;;;;5125619;27;20220;-64
2021/12/26 06:25:09;;;;;;;10.57;9.45;;;-1.10;94.60;;;;;;5132475;27;20232;-64
2021/12/26 06:27:36;;;;;;;11.70;9.45;;;-1.10;94.50;;;;;;5133587;27;20233;-64
2021/12/26 06:30:07;;;;;;;9.32;8.02;;;-1.20;94.40;;;;;;5119184;27;20626;-64
2021/12/26 06:32:34;;;;;;;12.65;8.30;;;-1.10;94.50;;;;;;5131417;27;20299;-64
2021/12/26 06:35:02;;;;;;;13.90;9.07;;;-1.10;94.50;;;;;;5126595;27;20236;-64
2021/12/26 06:37:30;;;;;;;8.68;7.82;;;-1.10;94.60;;;;;;5133210;27;20221;-63
2021/12/26 06:39:59;;;;;;;9.85;7.00;;;-1.10;94.50;;;;;;5132801;27;20219;-63
2021/12/26 06:42:27;;;;;;;12.52;8.50;;;-1.20;94.50;;;;;;5133025;27;20216;-63
2021/12/26 06:44:54;;;;;;;10.45;7.43;;;-1.10;94.50;;;;;;5132910;27;20236;-63
2021/12/26 06:47:21;;;;;;;9.75;7.82;;;-1.20;94.40;;;;;;5133309;27;20306;-62
2021/12/26 06:49:48;;;;;;;9.77;8.23;;;-1.20;94.30;;;;;;5132654;27;20319;-62
2021/12/26 06:52:16;;;;;;;11.13;7.43;;;-1.20;94.30;;;;;;5133024;27;20316;-62
2021/12/26 06:54:43;;;;;;;8.90;7.47;;;-1.20;94.50;;;;;;5133382;27;20223;-64
2021/12/26 06:57:10;;;;;;;12.10;7.03;;;-1.20;94.50;;;;;;5132753;27;20563;-63
2021/12/26 06:59:37;;;;;;;11.52;8.15;;;-1.30;94.60;;;;;;5132978;27;20229;-63
2021/12/26 07:02:04;;;;;;;12.20;8.30;;;-1.30;94.50;;;;;;5132740;27;20682;-65
2021/12/26 07:04:31;;;;;;;9.07;8.00;;;-1.30;94.50;;;;;;5133000;27;20212;-64
2021/12/26 07:06:57;;;;;;;7.80;6.32;;;-1.30;94.50;;;;;;5132518;27;20237;-64
2021/12/26 07:09:26;;;;;;;11.10;8.10;;;-1.40;94.50;;;;;;5133155;27;20558;-64
2021/12/26 07:11:52;;;;;;;11.45;8.30;;;-1.30;94.60;;;;;;5132570;27;20228;-63
2021/12/26 07:14:19;;;;;;;10.18;7.35;;;-1.30;94.70;;;;;;5132852;27;20222;-64
2021/12/26 07:16:46;;;;;;;10.57;7.75;;;-1.40;94.80;;;;;;5133076;27;20571;-65
2021/12/26 07:19:13;;;;;;;8.20;7.03;;;-1.40;94.90;;;;;;5132549;27;21452;-64
2021/12/26 07:21:41;;;;;;;10.00;7.22;;;-1.40;94.90;;;;;;5132807;27;20223;-65
2021/12/26 07:24:08;;;;;;;9.68;7.57;;;-1.40;94.90;;;;;;5128263;27;20233;-63
2021/12/26 07:26:36;;;;;;;8.77;6.85;;;-1.40;94.80;;;;;;5133052;27;20221;-63
2021/12/26 07:29:03;;;;;;;11.13;7.38;;;-1.40;94.90;;;;;;5136272;27;20237;-63
2021/12/26 07:31:30;;;;;;;10.70;7.65;;;-1.40;94.90;;;;;;5129534;27;20226;-64
2021/12/26 07:33:57;;;;;;;8.93;7.97;;;-1.50;95.00;;;;;;5132555;27;20558;-64
2021/12/26 07:36:24;;;;;;;9.70;7.10;;;-1.50;95.00;;;;;;5136624;27;20676;-64
2021/12/26 07:38:52;;;;;;;9.65;6.60;;;-1.50;95.00;;;;;;5135895;27;20226;-64
2021/12/26 07:41:19;;;;;;;7.68;6.95;;;-1.50;95.10;;;;;;5126266;27;20238;-64
2021/12/26 07:43:47;;;;;;;9.70;7.35;;;-1.50;95.00;;;;;;5135377;27;20239;-64
2021/12/26 07:46:14;;;;;;;8.23;6.68;;;-1.50;95.10;;;;;;5135917;27;20223;-64
2021/12/26 07:48:41;;;;;;;11.73;7.13;;;-1.50;95.10;;;;;;5136239;27;20228;-64
2021/12/26 07:51:07;;;;;;;7.25;6.55;;;-1.50;94.90;;;;;;5135592;27;20217;-64
2021/12/26 07:53:35;;;;;;;10.30;8.07;;;-1.50;95.00;;;;;;5136170;27;20622;-64
2021/12/26 07:56:02;;;;;;;7.63;6.68;;;-1.50;95.00;;;;;;5135839;27;20323;-64
2021/12/26 07:58:28;;;;;;;13.88;7.90;;;-1.50;95.00;;;;;;5135919;27;20764;-64
2021/12/26 08:00:57;;;;;;;10.07;7.60;;;-1.50;94.90;;;;;;5135559;27;20302;-64
2021/12/26 08:03:23;;;;;;;9.85;7.18;;;-1.50;94.90;;;;;;5135944;27;20561;-64
2021/12/26 08:05:50;;;;;;;8.98;8.05;;;-1.50;94.90;;;;;;5135739;27;20246;-64
2021/12/26 08:08:17;;;;;;;9.75;8.07;;;-1.50;94.90;;;;;;5135460;27;20569;-64
2021/12/26 08:10:44;;;;;;;11.00;8.85;;;-1.50;94.90;;;;;;5135736;27;20224;-64
2021/12/26 08:13:11;;;;;;;9.27;8.25;;;-1.50;94.90;;;;;;5135142;27;20227;-64
2021/12/26 08:15:38;;;;;;;13.55;8.98;;;-1.40;94.80;;;;;;5135820;27;20228;-64
2021/12/26 08:18:06;;;;;;;9.82;7.53;;;-1.40;94.70;;;;;;5135440;27;20270;-64
2021/12/26 08:20:33;;;;;;;12.15;9.30;;;-1.40;94.70;;;;;;5135576;27;20225;-64
2021/12/26 08:23:01;;;;;;;13.13;9.13;;;-1.40;94.60;;;;;;5128574;27;20239;-64
2021/12/26 08:25:29;;;;;;;11.05;9.65;;;-1.30;94.50;;;;;;5135698;27;20224;-64
2021/12/26 08:27:56;;;;;;;14.25;9.90;;;-1.30;94.50;;;;;;5134995;27;20671;-64
2021/12/26 08:30:24;;;;;;;13.75;8.70;;;-1.40;94.30;;;;;;5135370;27;20224;-64
2021/12/26 08:32:53;;;;;;;11.05;8.40;;;-1.30;94.40;;;;;;5122191;27;20231;-64
2021/12/26 08:35:22;;;;;;;11.25;8.95;;;-1.40;94.20;;;;;;5135037;27;21022;-63
2021/12/26 08:37:49;;;;;;;9.85;7.82;;;-1.40;94.30;;;;;;5134860;27;20219;-63
2021/12/26 08:40:16;;;;;;;11.63;9.30;;;-1.30;94.40;;;;;;5133761;27;20674;-64
2021/12/26 08:42:43;;;;;;;9.93;7.80;;;-1.30;94.50;;;;;;5134545;27;20679;-64
2021/12/26 08:45:11;;;;;;;12.02;9.10;;;-1.30;94.40;;;;;;5134796;27;20225;-63
2021/12/26 08:47:38;;;;;;;10.15;7.57;;;-1.30;94.50;;;;;;5121870;27;20219;-64
2021/12/26 08:50:08;;;;;;;11.98;9.90;;;-1.30;94.50;;;;;;5134382;27;20229;-64
2021/12/26 08:52:36;;;;;;;10.27;8.25;;;-1.30;94.50;;;;;;5134979;27;20228;-64
2021/12/26 08:55:05;;;;;;;11.27;8.90;;;-1.20;94.70;;;;;;5134498;27;20238;-63
2021/12/26 08:57:32;;;;;;;10.13;8.98;;;-1.30;94.50;;;;;;5135159;27;20221;-64
2021/12/26 08:59:59;;;;;;;15.40;9.73;;;-1.20;94.80;;;;;;5133432;27;20233;-64
2021/12/26 09:02:27;;;;;;;16.40;10.88;;;-1.20;94.80;;;;;;5134939;27;20223;-64
2021/12/26 09:04:54;;;;;;;14.90;10.07;;;-1.20;95.00;;;;;;5134353;27;20566;-64
2021/12/26 09:07:21;;;;;;;8.90;8.00;;;-1.20;94.80;;;;;;5134199;27;20310;-65
2021/12/26 09:09:49;;;;;;;15.07;10.10;;;-1.20;94.90;;;;;;5134627;27;20234;-63
2021/12/26 09:12:16;;;;;;;14.30;9.55;;;-1.10;95.00;;;;;;5134149;27;20223;-63
2021/12/26 09:14:43;;;;;;;16.25;10.00;;;-1.10;95.00;;;;;;5134447;27;20215;-63
2021/12/26 09:17:10;;;;;;;15.20;9.75;;;-1.10;95.00;;;;;;5134289;27;20229;-64
2021/12/26 09:19:37;;;;;;;14.68;9.55;;;-1.00;94.90;;;;;;5134338;27;20233;-64
2021/12/26 09:22:07;;;;;;;13.25;8.77;;;-0.90;95.00;;;;;;5131730;27;20228;-63
2021/12/26 09:24:34;;;;;;;13.25;9.10;;;-0.90;94.80;;;;;;5131711;27;20782;-64
2021/12/26 09:27:03;;;;;;;11.52;9.57;;;-0.80;94.60;;;;;;5133961;27;20226;-63
2021/12/26 09:29:30;;;;;;;15.23;9.93;;;-0.80;94.50;;;;;;5134196;27;20234;-64
2021/12/26 09:31:57;;;;;;;10.38;8.32;;;-0.80;94.50;;;;;;5123469;27;20680;-64
2021/12/26 09:34:24;;;;;;;14.88;9.90;;;-0.70;94.20;;;;;;5131392;27;20236;-64
2021/12/26 09:36:52;;;;;;;21.13;11.68;;;-0.70;93.90;;;;;;5134174;27;20558;-64
2021/12/26 09:39:19;;;;;;;14.15;11.77;;;-0.60;93.50;;;;;;5133580;27;20239;-64
2021/12/26 09:41:46;;;;;;;16.20;10.55;;;-0.60;93.10;;;;;;5133915;27;21483;-64
2021/12/26 09:44:14;;;;;;;18.33;12.73;;;-0.60;93.40;;;;;;5133475;27;20239;-64
2021/12/26 09:46:41;;;;;;;23.98;14.10;;;-0.50;93.30;;;;;;5134145;27;20228;-64
2021/12/26 09:49:09;;;;;;;23.27;12.80;;;-0.40;93.30;;;;;;5133003;27;20224;-63
2021/12/26 09:51:36;;;;;;;15.65;11.93;;;-0.30;92.90;;;;;;5133723;27;20221;-64
2021/12/26 09:54:03;;;;;;;18.25;13.30;;;-0.30;92.40;;;;;;5133310;27;20232;-63
2021/12/26 09:56:30;;;;;;;15.98;12.88;;;-0.20;92.20;;;;;;5133795;27;20217;-63
2021/12/26 09:59:00;;;;;;;16.73;11.85;;;-0.20;91.50;;;;;;5133743;27;20230;-63
2021/12/26 10:01:30;;;;;;;16.27;11.75;;;-0.10;91.20;;;;;;5133437;27;20553;-63
2021/12/26 10:04:00;;;;;;;14.60;11.68;;;0.00;90.80;;;;;;5120084;27;20310;-63
2021/12/26 10:06:33;;;;;;;18.50;13.48;;;0.00;90.30;;;;;;5133033;27;20226;-63
2021/12/26 10:09:04;;;;;;;18.67;12.50;;;0.00;89.50;;;;;;5133569;27;20298;-63
2021/12/26 10:11:34;;;;;;;15.57;13.45;;;0.00;88.50;;;;;;5133180;27;21043;-64
2021/12/26 10:14:04;;;;;;;15.35;13.07;;;0.10;88.10;;;;;;5133433;27;20224;-64
2021/12/26 10:16:38;;;;;;;16.58;12.68;;;0.10;87.70;;;;;;5133089;27;20628;-64
2021/12/26 10:19:06;;;;;;;16.33;12.32;;;0.10;86.60;;;;;;5133542;27;20235;-65
2021/12/26 10:21:40;;;;;;;17.98;12.32;;;0.10;86.00;;;;;;5133052;27;20234;-64
2021/12/26 10:24:19;;;;;;;17.52;13.07;;;0.20;86.30;;;;;;5133229;27;20299;-63
2021/12/26 10:26:49;;;;;;;16.85;13.48;;;0.30;85.90;;;;;;5133837;27;20241;-64
2021/12/26 10:29:20;;;;;;;15.60;13.35;;;0.30;85.90;;;;;;5119560;27;20973;-63
2021/12/26 10:31:52;;;;;;;19.02;13.02;;;0.40;86.20;;;;;;5124195;27;20391;-64
2021/12/26 10:34:27;;;;;;;16.00;13.45;;;0.40;85.10;;;;;;5133218;27;21484;-65
2021/12/26 10:36:56;;;;;;;21.30;14.98;;;0.40;84.30;;;;;;5133222;27;20236;-63
2021/12/26 10:39:26;;;;;;;20.48;14.98;;;0.50;84.10;;;;;;5133085;27;20569;-63
2021/12/26 10:41:54;;;;;;;23.40;15.57;;;0.50;84.00;;;;;;5121975;27;20220;-63
2021/12/26 10:44:30;;;;;;;17.58;13.88;;;0.50;83.00;;;;;;5133108;27;20303;-63
2021/12/26 10:47:00;;;;;;;18.30;12.52;;;0.60;82.60;;;;;;5133366;27;20229;-63
2021/12/26 10:49:40;;;;;;;15.98;11.98;;;0.70;82.30;;;;;;5133214;27;20951;-64
2021/12/26 10:52:14;;;;;;;17.98;10.75;;;0.70;81.90;;;;;;5128686;27;20228;-64
2021/12/26 10:54:44;;;;;;;15.80;11.18;;;0.80;81.20;;;;;;5133124;27;20228;-64
2021/12/26 10:57:19;;;;;;;12.48;9.23;;;0.80;80.20;;;;;;5132867;27;20224;-63
2021/12/26 10:59:47;;;;;;;16.92;11.10;;;0.90;79.80;;;;;;5133008;27;20242;-63
2021/12/26 11:02:25;;;;;;;10.95;9.23;;;0.90;78.00;;;;;;5135913;27;20319;-64
2021/12/26 11:05:02;;;;;;;8.05;7.15;;;0.90;77.70;;;;;;5136949;27;20310;-64
2021/12/26 11:07:29;;;;;;;10.50;7.65;;;1.00;75.90;;;;;;5136437;27;20247;-63
2021/12/26 11:10:09;;;;;;;8.45;7.60;;;1.00;75.60;;;;;;5137005;27;20228;-63
2021/12/26 11:12:38;;;;;;;15.40;8.50;;;1.10;75.40;;;;;;5136459;27;20258;-63
2021/12/26 11:15:08;;;;;;;14.88;8.15;;;1.10;75.00;;;;;;5137011;27;20224;-63
2021/12/26 11:17:42;;;;;;;11.55;7.90;;;1.10;74.70;;;;;;5136430;27;20220;-63
2021/12/26 11:20:10;;;;;;;7.60;6.80;;;1.20;73.90;;;;;;5136830;27;20239;-63
2021/12/26 11:22:37;;;;;;;9.00;6.75;;;1.20;73.70;;;;;;5135427;27;20711;-63
2021/12/26 11:25:08;;;;;;;9.10;7.15;;;1.30;73.60;;;;;;5136968;27;20565;-64
2021/12/26 11:27:35;;;;;;;11.38;7.35;;;1.30;72.80;;;;;;5122673;27;20227;-63
2021/12/26 11:30:02;;;;;;;8.43;7.07;;;1.30;71.30;;;;;;5136463;27;20313;-63
2021/12/26 11:32:31;;;;;;;9.32;7.20;;;1.30;71.70;;;;;;5127886;27;20327;-64
2021/12/26 11:35:00;;;;;;;8.75;7.88;;;1.40;71.20;;;;;;5136335;27;20229;-64
2021/12/26 11:37:27;;;;;;;7.35;6.40;;;1.40;70.70;;;;;;5136037;27;20301;-63
2021/12/26 11:39:56;;;;;;;8.15;6.05;;;1.40;70.40;;;;;;5136369;27;20237;-64
2021/12/26 11:42:52;;;;;;;7.57;6.65;;;1.40;68.00;;;;;;5125363;27;20228;-63
2021/12/26 11:45:25;;;;;;;6.53;5.85;;;1.40;68.00;;;;;;5136017;27;20228;-64
2021/12/26 11:48:20;;;;;;;8.23;6.18;;;1.50;67.80;;;;;;5136241;27;20307;-64
2021/12/26 11:51:01;;;;;;;5.30;4.10;;;1.50;66.60;;;;;;5125837;27;20324;-64
2021/12/26 11:53:38;;;;;;;6.40;5.82;;;1.50;65.30;;;;;;5135369;27;20216;-61
2021/12/26 11:56:20;;;;;;;8.75;6.15;;;1.60;65.00;;;;;;5136096;27;20209;-64
2021/12/26 11:59:02;;;;;;;6.57;5.07;;;1.60;65.00;;;;;;5135670;27;20243;-64
2021/12/26 12:01:30;;;;;;;5.90;4.85;;;1.70;65.40;;;;;;5135342;27;20687;-63
2021/12/26 12:04:17;;;;;;;10.02;6.78;;;1.70;65.40;;;;;;5136054;27;20681;-63
2021/12/26 12:06:47;;;;;;;8.68;7.43;;;1.80;65.70;;;;;;5135584;27;20225;-64
2021/12/26 12:09:29;;;;;;;8.40;6.72;;;1.80;65.10;;;;;;5135791;27;20240;-64
2021/12/26 12:12:01;;;;;;;8.40;6.15;;;1.90;64.70;;;;;;5128464;27;20663;-63
2021/12/26 12:14:48;;;;;;;7.50;5.82;;;1.90;64.40;;;;;;5133394;27;20226;-64
2021/12/26 12:17:16;;;;;;;6.57;5.00;;;1.90;64.00;;;;;;5132422;27;20220;-63
2021/12/26 12:20:22;;;;;;;6.93;4.97;;;2.00;62.70;;;;;;5135408;27;20231;-64
2021/12/26 12:23:14;;;;;;;5.75;4.35;;;2.00;62.10;;;;;;5102997;27;20215;-63
2021/12/26 12:25:48;;;;;;;4.88;4.40;;;2.00;62.10;;;;;;5135263;27;20229;-64
2021/12/26 12:28:17;;;;;;;5.65;5.07;;;2.00;61.80;;;;;;5135262;27;20221;-63
2021/12/26 12:30:47;;;;;;;5.30;4.40;;;2.00;62.30;;;;;;5134305;27;20320;-63
2021/12/26 12:33:17;;;;;;;5.57;4.68;;;2.00;62.40;;;;;;5128631;27;20220;-64
2021/12/26 12:35:53;;;;;;;10.30;7.22;;;2.10;62.60;;;;;;5134509;27;20588;-64
2021/12/26 12:38:28;;;;;;;5.50;5.00;;;2.10;62.20;;;;;;5135080;27;20297;-63
2021/12/26 12:40:56;;;;;;;7.22;5.65;;;2.10;61.20;;;;;;5134804;27;20303;-64
2021/12/26 12:43:25;;;;;;;8.60;5.50;;;2.00;60.80;;;;;;5134799;27;20686;-63
2021/12/26 12:46:13;;;;;;;8.43;5.32;;;2.10;61.00;;;;;;5128690;27;20243;-64
2021/12/26 12:48:44;;;;;;;8.90;6.38;;;2.10;60.80;;;;;;5118482;27;20309;-64
2021/12/26 12:51:36;;;;;;;6.78;5.40;;;2.10;61.10;;;;;;5132068;27;20544;-63
2021/12/26 12:54:23;;;;;;;9.95;7.43;;;2.10;61.50;;;;;;5129545;27;20646;-64